Airfield :
LOGIN :

Register | Disclaimer

   EN    FR    IT 

 










Legend :    VFR   Marginal VFR   IFR   Intensive IFR   Very Intensive IFR
Visi :
Ceiling :
>= 8 km
>= 3000ft
5 to 8 km
1000 to 3000 ft
1500m to 5 km
500 to 1000 ft
800 to 1500m
200 to 500 ft
< 800m
< 200 ft
Symbols :   Thunderstorms  Fog  Heavy snow  Heavy precipitations  Wind > 20 kt
SIGMETs :     Misc.  Thunderstorms  Icing  Turbulence  Mountain Waves  Volcanic Ashes






- Airport Elevation : 656 ft
- IATA code : CMN


GMMN - Casablanca Mohammed V

CURRENT METAR :
  • 270800Z 03011KT 9999 SCT008 SCT200 19/17 Q1022 NOSIG

EXPIRED METARs :
  • 270730Z 04008KT 330V060 9999 SCT006 SCT200 19/17 Q1022 NOSIG
  • 270700Z 04006KT 020V090 9999 SCT006 SCT200 18/17 Q1022 NOSIG
  • 270630Z 04005KT 9999 SCT006 18/17 Q1021 NOSIG
  • 270600Z 05006KT 9999 SCT006 18/17 Q1021 NOSIG
  • 270530Z 05006KT 9999 SCT008 18/17 Q1021 NOSIG

TAF TAF GMMN
Valid from the 27 at 06:00 until the 28 at 12:00 UTC


270500Z 2706/2812 04004KT 9999 SCT006
BECMG 2712/2714 36014KT CAVOK
BECMG 2719/2721 02004KT
PROB40
TEMPO 2800/2806 2000 BR BKN010
BECMG 2810/2812 32014KT



MET'MAP, your aeronautical weather chart ! - Copyright ORBIFLY December 2007 - Disclaimer

ORBIFLY MET'MAP TEAM :

Programming & Development : Alexandra Zaïnal
Concept & original design : Baudouin d'Aumeries
Assistance for programming : Marc-Olivier Méhu
Technical & hardware support : Manuel Goepfert

Contact : metmap@orbifly.com




SOURCES & CREDITS :

   NOAA